sensor_id;sensor_type;location;lat;lon;timestamp;P1;durP1;ratioP1;P2;durP2;ratioP2
65039;SDS011;51606;45.000;38.612;2023-03-03T04:26:59;1.23;;;1.05;;
65039;SDS011;51606;45.000;38.612;2023-03-03T04:29:26;2.13;;;1.77;;
65039;SDS011;51606;45.000;38.612;2023-03-03T04:31:52;2.63;;;1.05;;
65039;SDS011;51606;45.000;38.612;2023-03-03T04:34:20;0.80;;;0.80;;
65039;SDS011;51606;45.000;38.612;2023-03-03T04:36:48;1.40;;;1.30;;
65039;SDS011;51606;45.000;38.612;2023-03-03T04:39:15;1.08;;;1.02;;
65039;SDS011;51606;45.000;38.612;2023-03-03T04:41:41;1.73;;;1.63;;
65039;SDS011;51606;45.000;38.612;2023-03-03T04:44:08;3.83;;;2.45;;
65039;SDS011;51606;45.000;38.612;2023-03-03T04:46:35;1.02;;;0.80;;
65039;SDS011;51606;45.000;38.612;2023-03-03T04:49:02;2.90;;;1.42;;
65039;SDS011;51606;45.000;38.612;2023-03-03T04:51:29;13.68;;;1.98;;
65039;SDS011;51606;45.000;38.612;2023-03-03T04:53:55;1.10;;;1.00;;
65039;SDS011;51606;45.000;38.612;2023-03-03T04:56:22;0.60;;;0.60;;
65039;SDS011;51606;45.000;38.612;2023-03-03T04:58:49;4.35;;;3.58;;
65039;SDS011;51606;45.000;38.612;2023-03-03T05:01:16;2.83;;;1.95;;
65039;SDS011;51606;45.000;38.612;2023-03-03T05:03:46;4.65;;;3.47;;
65039;SDS011;51606;45.000;38.612;2023-03-03T05:06:13;3.15;;;2.28;;
65039;SDS011;51606;45.000;38.612;2023-03-03T05:08:40;2.53;;;2.30;;
65039;SDS011;51606;45.000;38.612;2023-03-03T05:11:07;8.95;;;3.35;;
65039;SDS011;51606;45.000;38.612;2023-03-03T05:13:34;2.05;;;1.90;;
65039;SDS011;51606;45.000;38.612;2023-03-03T05:16:00;5.97;;;3.65;;
65039;SDS011;51606;45.000;38.612;2023-03-03T05:18:26;7.63;;;2.13;;
65039;SDS011;51606;45.000;38.612;2023-03-03T05:20:53;2.42;;;1.88;;
65039;SDS011;51606;45.000;38.612;2023-03-03T05:23:23;6.63;;;2.90;;
65039;SDS011;51606;45.000;38.612;2023-03-03T05:25:49;9.18;;;2.08;;
65039;SDS011;51606;45.000;38.612;2023-03-03T05:28:17;3.78;;;2.15;;
65039;SDS011;51606;45.000;38.612;2023-03-03T05:30:43;2.70;;;1.90;;
65039;SDS011;51606;45.000;38.612;2023-03-03T05:33:11;5.20;;;2.85;;
65039;SDS011;51606;45.000;38.612;2023-03-03T05:35:39;8.45;;;4.18;;
65039;SDS011;51606;45.000;38.612;2023-03-03T05:38:08;3.95;;;2.88;;
65039;SDS011;51606;45.000;38.612;2023-03-03T05:40:36;2.90;;;1.95;;
65039;SDS011;51606;45.000;38.612;2023-03-03T05:43:03;4.35;;;3.30;;
65039;SDS011;51606;45.000;38.612;2023-03-03T05:45:29;5.55;;;3.42;;
65039;SDS011;51606;45.000;38.612;2023-03-03T05:47:55;5.57;;;3.50;;
65039;SDS011;51606;45.000;38.612;2023-03-03T05:50:22;23.98;;;5.25;;
65039;SDS011;51606;45.000;38.612;2023-03-03T05:52:51;15.98;;;3.88;;
65039;SDS011;51606;45.000;38.612;2023-03-03T05:55:18;8.57;;;3.83;;
65039;SDS011;51606;45.000;38.612;2023-03-03T05:57:44;7.88;;;3.78;;
65039;SDS011;51606;45.000;38.612;2023-03-03T06:00:11;6.45;;;3.35;;
65039;SDS011;51606;45.000;38.612;2023-03-03T06:02:38;12.90;;;4.53;;
65039;SDS011;51606;45.000;38.612;2023-03-03T06:05:05;6.72;;;4.30;;
65039;SDS011;51606;45.000;38.612;2023-03-03T06:07:32;11.30;;;4.32;;
65039;SDS011;51606;45.000;38.612;2023-03-03T06:09:59;9.68;;;4.05;;
65039;SDS011;51606;45.000;38.612;2023-03-03T06:12:27;8.07;;;4.18;;
65039;SDS011;51606;45.000;38.612;2023-03-03T06:14:53;13.07;;;3.20;;
65039;SDS011;51606;45.000;38.612;2023-03-03T06:17:20;5.13;;;3.53;;
65039;SDS011;51606;45.000;38.612;2023-03-03T06:19:46;3.63;;;2.97;;
65039;SDS011;51606;45.000;38.612;2023-03-03T06:22:13;7.53;;;3.60;;
65039;SDS011;51606;45.000;38.612;2023-03-03T06:24:39;7.07;;;4.35;;
65039;SDS011;51606;45.000;38.612;2023-03-03T06:27:05;9.70;;;3.67;;
65039;SDS011;51606;45.000;38.612;2023-03-03T06:29:32;5.30;;;3.33;;
65039;SDS011;51606;45.000;38.612;2023-03-03T06:31:58;5.50;;;3.53;;
65039;SDS011;51606;45.000;38.612;2023-03-03T06:34:28;19.83;;;3.97;;
65039;SDS011;51606;45.000;38.612;2023-03-03T06:36:54;7.65;;;3.00;;
65039;SDS011;51606;45.000;38.612;2023-03-03T06:39:21;5.18;;;3.22;;
65039;SDS011;51606;45.000;38.612;2023-03-03T06:41:48;5.95;;;3.28;;
65039;SDS011;51606;45.000;38.612;2023-03-03T06:44:14;6.15;;;2.92;;
65039;SDS011;51606;45.000;38.612;2023-03-03T06:46:40;6.65;;;3.33;;
65039;SDS011;51606;45.000;38.612;2023-03-03T06:49:07;4.20;;;3.30;;
65039;SDS011;51606;45.000;38.612;2023-03-03T06:51:34;8.52;;;3.42;;
65039;SDS011;51606;45.000;38.612;2023-03-03T06:54:15;8.02;;;3.33;;
65039;SDS011;51606;45.000;38.612;2023-03-03T06:56:43;12.77;;;3.78;;
65039;SDS011;51606;45.000;38.612;2023-03-03T06:59:14;6.28;;;3.97;;
65039;SDS011;51606;45.000;38.612;2023-03-03T07:01:45;5.03;;;3.08;;
65039;SDS011;51606;45.000;38.612;2023-03-03T07:04:26;7.82;;;3.90;;
65039;SDS011;51606;45.000;38.612;2023-03-03T07:07:17;5.90;;;4.70;;
65039;SDS011;51606;45.000;38.612;2023-03-03T07:09:46;6.18;;;3.83;;
65039;SDS011;51606;45.000;38.612;2023-03-03T07:12:17;3.47;;;2.80;;
65039;SDS011;51606;45.000;38.612;2023-03-03T07:15:00;8.80;;;3.42;;
65039;SDS011;51606;45.000;38.612;2023-03-03T07:17:47;6.47;;;3.08;;
65039;SDS011;51606;45.000;38.612;2023-03-03T07:22:46;18.30;;;4.15;;
65039;SDS011;51606;45.000;38.612;2023-03-03T07:25:18;7.95;;;3.95;;
65039;SDS011;51606;45.000;38.612;2023-03-03T07:27:55;6.38;;;3.70;;
65039;SDS011;51606;45.000;38.612;2023-03-03T07:30:27;6.50;;;3.38;;
65039;SDS011;51606;45.000;38.612;2023-03-03T07:32:55;6.47;;;3.25;;
65039;SDS011;51606;45.000;38.612;2023-03-03T07:35:27;8.00;;;3.97;;
65039;SDS011;51606;45.000;38.612;2023-03-03T07:38:01;5.85;;;3.85;;
65039;SDS011;51606;45.000;38.612;2023-03-03T07:40:30;5.28;;;3.88;;
65039;SDS011;51606;45.000;38.612;2023-03-03T07:43:21;10.30;;;4.63;;
65039;SDS011;51606;45.000;38.612;2023-03-03T07:46:01;9.48;;;3.85;;
65039;SDS011;51606;45.000;38.612;2023-03-03T07:49:05;9.80;;;4.07;;
65039;SDS011;51606;45.000;38.612;2023-03-03T07:51:51;6.50;;;3.67;;
65039;SDS011;51606;45.000;38.612;2023-03-03T08:00:03;7.25;;;4.18;;
65039;SDS011;51606;45.000;38.612;2023-03-03T08:05:28;11.25;;;4.25;;
65039;SDS011;51606;45.000;38.612;2023-03-03T08:10:46;8.82;;;4.20;;
65039;SDS011;51606;45.000;38.612;2023-03-03T08:15:58;15.73;;;7.20;;
65039;SDS011;51606;45.000;38.612;2023-03-03T08:18:29;14.18;;;7.85;;
65039;SDS011;51606;45.000;38.612;2023-03-03T08:23:38;15.35;;;8.07;;
65039;SDS011;51606;45.000;38.612;2023-03-03T08:26:05;11.73;;;6.25;;
65039;SDS011;51606;45.000;38.612;2023-03-03T08:28:32;9.63;;;5.15;;
65039;SDS011;51606;45.000;38.612;2023-03-03T08:30:58;10.57;;;5.30;;
65039;SDS011;51606;45.000;38.612;2023-03-03T08:33:25;6.65;;;3.95;;
65039;SDS011;51606;45.000;38.612;2023-03-03T08:35:51;8.20;;;5.07;;
65039;SDS011;51606;45.000;38.612;2023-03-03T08:38:18;7.63;;;4.00;;
65039;SDS011;51606;45.000;38.612;2023-03-03T08:40:47;6.60;;;4.20;;
65039;SDS011;51606;45.000;38.612;2023-03-03T08:43:14;7.97;;;4.07;;
65039;SDS011;51606;45.000;38.612;2023-03-03T08:45:46;8.95;;;3.88;;
65039;SDS011;51606;45.000;38.612;2023-03-03T08:48:15;7.93;;;4.05;;
65039;SDS011;51606;45.000;38.612;2023-03-03T08:50:42;10.98;;;4.53;;
65039;SDS011;51606;45.000;38.612;2023-03-03T08:53:08;6.32;;;4.60;;
65039;SDS011;51606;45.000;38.612;2023-03-03T08:55:36;6.53;;;3.65;;
65039;SDS011;51606;45.000;38.612;2023-03-03T08:58:02;6.28;;;3.80;;
65039;SDS011;51606;45.000;38.612;2023-03-03T09:00:29;6.28;;;3.80;;
65039;SDS011;51606;45.000;38.612;2023-03-03T09:02:55;4.20;;;2.80;;
65039;SDS011;51606;45.000;38.612;2023-03-03T09:05:23;3.47;;;2.42;;
65039;SDS011;51606;45.000;38.612;2023-03-03T09:07:50;5.15;;;3.30;;
65039;SDS011;51606;45.000;38.612;2023-03-03T09:10:22;6.15;;;3.60;;
65039;SDS011;51606;45.000;38.612;2023-03-03T09:12:54;4.13;;;2.97;;
65039;SDS011;51606;45.000;38.612;2023-03-03T09:17:56;13.93;;;3.47;;
65039;SDS011;51606;45.000;38.612;2023-03-03T09:20:27;6.97;;;3.08;;
65039;SDS011;51606;45.000;38.612;2023-03-03T09:22:59;3.38;;;2.65;;
65039;SDS011;51606;45.000;38.612;2023-03-03T09:25:43;4.93;;;2.40;;
65039;SDS011;51606;45.000;38.612;2023-03-03T09:28:21;3.10;;;2.20;;
65039;SDS011;51606;45.000;38.612;2023-03-03T09:30:58;5.20;;;2.60;;
65039;SDS011;51606;45.000;38.612;2023-03-03T09:33:27;4.80;;;2.50;;
65039;SDS011;51606;45.000;38.612;2023-03-03T09:36:27;3.55;;;2.05;;
65039;SDS011;51606;45.000;38.612;2023-03-03T09:38:56;3.33;;;1.65;;
65039;SDS011;51606;45.000;38.612;2023-03-03T09:44:49;3.05;;;1.60;;
65039;SDS011;51606;45.000;38.612;2023-03-03T09:50:07;3.35;;;2.25;;
65039;SDS011;51606;45.000;38.612;2023-03-03T10:04:05;3.63;;;2.38;;
65039;SDS011;51606;45.000;38.612;2023-03-03T10:20:25;4.70;;;2.65;;
65039;SDS011;51606;45.000;38.612;2023-03-03T10:23:24;3.53;;;2.22;;
65039;SDS011;51606;45.000;38.612;2023-03-03T10:35:29;4.70;;;2.72;;
65039;SDS011;51606;45.000;38.612;2023-03-03T10:37:16;3.70;;;2.10;;
65039;SDS011;51606;45.000;38.612;2023-03-03T10:44:13;4.47;;;2.05;;
65039;SDS011;51606;45.000;38.612;2023-03-03T10:46:42;3.08;;;2.20;;
65039;SDS011;51606;45.000;38.612;2023-03-03T10:54:50;13.27;;;2.00;;
65039;SDS011;51606;45.000;38.612;2023-03-03T11:00:32;1.15;;;0.85;;
65039;SDS011;51606;45.000;38.612;2023-03-03T11:03:26;3.13;;;1.77;;
65039;SDS011;51606;45.000;38.612;2023-03-03T11:11:59;1.85;;;1.27;;
65039;SDS011;51606;45.000;38.612;2023-03-03T11:17:19;2.42;;;1.83;;
65039;SDS011;51606;45.000;38.612;2023-03-03T11:26:08;3.90;;;1.83;;
65039;SDS011;51606;45.000;38.612;2023-03-03T11:29:06;3.25;;;2.05;;
65039;SDS011;51606;45.000;38.612;2023-03-03T11:32:03;1.25;;;1.13;;
65039;SDS011;51606;45.000;38.612;2023-03-03T11:39:52;3.10;;;1.80;;
65039;SDS011;51606;45.000;38.612;2023-03-03T11:42:35;3.97;;;2.30;;
65039;SDS011;51606;45.000;38.612;2023-03-03T11:45:19;7.35;;;3.20;;
65039;SDS011;51606;45.000;38.612;2023-03-03T11:50:37;9.77;;;3.00;;
65039;SDS011;51606;45.000;38.612;2023-03-03T11:55:51;6.85;;;4.20;;
65039;SDS011;51606;45.000;38.612;2023-03-03T12:01:35;9.63;;;4.57;;
65039;SDS011;51606;45.000;38.612;2023-03-03T12:04:26;15.57;;;5.55;;
65039;SDS011;51606;45.000;38.612;2023-03-03T12:16:21;22.45;;;7.43;;
65039;SDS011;51606;45.000;38.612;2023-03-03T12:28:08;15.82;;;7.28;;
65039;SDS011;51606;45.000;38.612;2023-03-03T12:42:37;3.60;;;2.55;;
65039;SDS011;51606;45.000;38.612;2023-03-03T12:45:28;10.37;;;2.57;;
65039;SDS011;51606;45.000;38.612;2023-03-03T12:48:40;4.10;;;1.98;;
65039;SDS011;51606;45.000;38.612;2023-03-03T12:57:08;9.43;;;2.30;;
65039;SDS011;51606;45.000;38.612;2023-03-03T13:00:21;3.92;;;2.40;;
65039;SDS011;51606;45.000;38.612;2023-03-03T13:06:15;3.03;;;1.58;;
65039;SDS011;51606;45.000;38.612;2023-03-03T13:08:55;2.97;;;2.05;;
65039;SDS011;51606;45.000;38.612;2023-03-03T13:21:12;10.98;;;3.25;;
65039;SDS011;51606;45.000;38.612;2023-03-03T13:23:46;13.27;;;5.40;;
65039;SDS011;51606;45.000;38.612;2023-03-03T13:29:12;6.65;;;2.70;;
65039;SDS011;51606;45.000;38.612;2023-03-03T13:31:56;5.13;;;2.70;;
65039;SDS011;51606;45.000;38.612;2023-03-03T13:37:27;4.95;;;2.90;;
65039;SDS011;51606;45.000;38.612;2023-03-03T13:42:39;22.67;;;3.60;;
65039;SDS011;51606;45.000;38.612;2023-03-03T13:45:53;6.28;;;3.83;;
65039;SDS011;51606;45.000;38.612;2023-03-03T13:48:36;7.55;;;4.60;;
65039;SDS011;51606;45.000;38.612;2023-03-03T13:51:20;11.18;;;3.80;;
65039;SDS011;51606;45.000;38.612;2023-03-03T13:59:20;10.90;;;4.00;;
65039;SDS011;51606;45.000;38.612;2023-03-03T14:07:41;11.82;;;5.38;;
65039;SDS011;51606;45.000;38.612;2023-03-03T14:12:56;15.15;;;5.72;;
65039;SDS011;51606;45.000;38.612;2023-03-03T14:15:51;13.32;;;6.60;;
65039;SDS011;51606;45.000;38.612;2023-03-03T14:18:30;15.18;;;5.63;;
65039;SDS011;51606;45.000;38.612;2023-03-03T14:26:44;11.00;;;4.22;;
65039;SDS011;51606;45.000;38.612;2023-03-03T14:31:55;7.93;;;4.22;;
65039;SDS011;51606;45.000;38.612;2023-03-03T14:34:33;21.17;;;5.40;;
65039;SDS011;51606;45.000;38.612;2023-03-03T14:37:18;13.23;;;4.50;;
65039;SDS011;51606;45.000;38.612;2023-03-03T14:42:46;10.05;;;5.55;;
65039;SDS011;51606;45.000;38.612;2023-03-03T14:48:14;14.57;;;6.28;;
65039;SDS011;51606;45.000;38.612;2023-03-03T14:53:32;10.38;;;6.18;;
65039;SDS011;51606;45.000;38.612;2023-03-03T15:01:46;16.50;;;8.32;;
65039;SDS011;51606;45.000;38.612;2023-03-03T15:04:25;12.00;;;6.78;;
65039;SDS011;51606;45.000;38.612;2023-03-03T15:06:54;16.23;;;7.68;;
65039;SDS011;51606;45.000;38.612;2023-03-03T15:12:24;16.67;;;7.82;;
65039;SDS011;51606;45.000;38.612;2023-03-03T15:14:50;21.00;;;7.20;;
65039;SDS011;51606;45.000;38.612;2023-03-03T15:23:02;11.07;;;6.00;;
65039;SDS011;51606;45.000;38.612;2023-03-03T15:28:45;16.73;;;6.80;;
65039;SDS011;51606;45.000;38.612;2023-03-03T15:31:29;13.27;;;7.20;;
65039;SDS011;51606;45.000;38.612;2023-03-03T15:47:23;17.65;;;4.85;;
65039;SDS011;51606;45.000;38.612;2023-03-03T15:56:08;18.13;;;7.18;;
65039;SDS011;51606;45.000;38.612;2023-03-03T16:04:57;8.32;;;5.20;;
65039;SDS011;51606;45.000;38.612;2023-03-03T16:10:12;24.30;;;5.13;;
65039;SDS011;51606;45.000;38.612;2023-03-03T16:23:33;4.72;;;2.53;;
65039;SDS011;51606;45.000;38.612;2023-03-03T16:31:30;3.03;;;2.35;;
65039;SDS011;51606;45.000;38.612;2023-03-03T16:34:16;2.88;;;1.75;;
65039;SDS011;51606;45.000;38.612;2023-03-03T16:39:36;3.55;;;2.17;;
65039;SDS011;51606;45.000;38.612;2023-03-03T16:42:29;6.03;;;4.00;;
65039;SDS011;51606;45.000;38.612;2023-03-03T16:45:03;8.32;;;4.20;;
65039;SDS011;51606;45.000;38.612;2023-03-03T16:50:43;4.60;;;3.15;;
65039;SDS011;51606;45.000;38.612;2023-03-03T16:53:38;4.65;;;2.92;;
65039;SDS011;51606;45.000;38.612;2023-03-03T16:59:27;2.92;;;2.45;;
65039;SDS011;51606;45.000;38.612;2023-03-03T17:02:13;20.70;;;3.65;;
65039;SDS011;51606;45.000;38.612;2023-03-03T17:11:21;6.57;;;4.13;;
65039;SDS011;51606;45.000;38.612;2023-03-03T17:14:27;6.22;;;3.63;;
65039;SDS011;51606;45.000;38.612;2023-03-03T17:17:05;5.18;;;3.13;;
65039;SDS011;51606;45.000;38.612;2023-03-03T17:19:52;4.37;;;2.90;;
65039;SDS011;51606;45.000;38.612;2023-03-03T17:25:06;4.72;;;2.65;;
65039;SDS011;51606;45.000;38.612;2023-03-03T17:38:39;4.38;;;3.22;;
65039;SDS011;51606;45.000;38.612;2023-03-03T17:44:36;2.92;;;2.60;;
65039;SDS011;51606;45.000;38.612;2023-03-03T17:47:17;3.53;;;2.78;;
65039;SDS011;51606;45.000;38.612;2023-03-03T17:52:58;2.88;;;2.28;;
65039;SDS011;51606;45.000;38.612;2023-03-03T17:55:48;4.82;;;2.65;;
65039;SDS011;51606;45.000;38.612;2023-03-03T18:01:29;9.15;;;2.33;;
65039;SDS011;51606;45.000;38.612;2023-03-03T18:09:17;2.28;;;1.98;;
65039;SDS011;51606;45.000;38.612;2023-03-03T18:22:49;4.97;;;2.83;;
